createdAt,value
2022-12-20T00:01:34.764Z,100852.66
2022-12-20T00:04:05.771Z,100863.84
2022-12-20T00:06:35.872Z,100858.72
2022-12-20T00:09:08.020Z,100851.94
2022-12-20T00:11:35.387Z,100839.84
2022-12-20T00:14:02.317Z,100840.31
2022-12-20T00:16:30.414Z,100837.44
2022-12-20T00:19:02.393Z,100842.84
2022-12-20T00:21:30.368Z,100830.09
2022-12-20T00:23:57.882Z,100838.28
2022-12-20T00:26:29.304Z,100835.72
2022-12-20T00:28:56.836Z,100834.91
2022-12-20T00:31:26.167Z,100846.44
2022-12-20T00:33:55.741Z,100844.69
2022-12-20T00:36:24.891Z,100833.59
2022-12-20T00:38:55.044Z,100838.75
2022-12-20T00:41:26.453Z,100841.06
2022-12-20T00:43:54.379Z,100844.03
2022-12-20T00:46:23.603Z,100844.03
2022-12-20T00:48:51.288Z,100843.69
2022-12-20T00:51:22.264Z,100844.03
2022-12-20T00:53:49.204Z,100848.00
2022-12-20T00:56:16.354Z,100849.75
2022-12-20T00:58:44.675Z,100839.31
2022-12-20T01:01:27.588Z,100840.06
2022-12-20T01:03:55.079Z,100845.19
2022-12-20T01:06:23.944Z,100849.34
2022-12-20T01:08:52.129Z,100853.75
2022-12-20T01:11:31.702Z,100839.56
2022-12-20T01:14:03.971Z,100830.69
2022-12-20T01:16:46.375Z,100837.56
2022-12-20T01:19:16.652Z,100823.16
2022-12-20T01:21:47.126Z,100806.91
2022-12-20T01:24:16.431Z,100808.22
2022-12-20T01:26:44.785Z,100822.69
2022-12-20T01:29:12.203Z,100824.56
2022-12-20T01:31:39.167Z,100818.69
2022-12-20T01:34:06.798Z,100822.50
2022-12-20T01:36:38.100Z,100821.91
2022-12-20T01:39:17.002Z,100820.69
2022-12-20T01:41:45.707Z,100826.63
2022-12-20T01:44:18.586Z,100823.72
2022-12-20T01:46:48.266Z,100812.31
2022-12-20T01:49:27.214Z,100807.41
2022-12-20T01:52:15.928Z,100809.13
2022-12-20T01:55:17.955Z,100816.84
2022-12-20T01:57:48.414Z,100810.22
2022-12-20T02:00:17.221Z,100826.28
2022-12-20T02:02:48.071Z,100814.06
2022-12-20T02:05:19.181Z,100802.84
2022-12-20T02:07:50.447Z,100803.78
2022-12-20T02:10:19.422Z,100792.66
2022-12-20T02:12:47.828Z,100797.91
2022-12-20T02:15:31.836Z,100784.78
2022-12-20T02:18:19.001Z,100785.53
2022-12-20T02:21:29.049Z,100789.28
2022-12-20T02:24:02.055Z,100783.31
2022-12-20T02:26:40.961Z,100766.91
2022-12-20T02:29:52.295Z,100767.56
2022-12-20T02:32:32.326Z,100761.34
2022-12-20T02:34:59.265Z,100763.00
2022-12-20T02:37:26.137Z,100756.19
2022-12-20T02:39:53.285Z,100743.78
2022-12-20T02:42:24.179Z,100745.34
2022-12-20T02:45:16.731Z,100757.94
2022-12-20T02:48:08.326Z,100767.81
2022-12-20T02:50:49.406Z,100758.03
2022-12-20T02:53:17.083Z,100754.78
2022-12-20T02:55:58.860Z,100757.19
2022-12-20T02:58:34.714Z,100756.94
2022-12-20T03:01:07.960Z,100755.19
2022-12-20T03:03:36.834Z,100752.06
2022-12-20T03:06:04.545Z,100759.94
2022-12-20T03:08:31.721Z,100758.44
2022-12-20T03:10:58.696Z,100756.38
2022-12-20T03:13:25.911Z,100753.88
2022-12-20T03:15:52.949Z,100760.16
2022-12-20T03:18:19.882Z,100754.53
2022-12-20T03:20:46.845Z,100744.00
2022-12-20T03:23:14.026Z,100750.22
2022-12-20T03:25:41.072Z,100748.31
2022-12-20T03:28:08.049Z,100738.03
2022-12-20T03:30:35.154Z,100734.78
2022-12-20T03:33:02.148Z,100739.31
2022-12-20T03:35:29.028Z,100738.44
2022-12-20T03:37:56.444Z,100741.41
2022-12-20T03:40:23.644Z,100729.84
2022-12-20T03:42:50.533Z,100735.78
2022-12-20T03:45:17.938Z,100726.50
2022-12-20T03:47:44.858Z,100726.94
2022-12-20T03:50:12.427Z,100736.59
2022-12-20T03:52:40.051Z,100742.88
2022-12-20T03:55:08.094Z,100730.25
2022-12-20T03:57:35.099Z,100719.41
2022-12-20T04:00:02.273Z,100719.31
2022-12-20T04:02:29.375Z,100712.00
2022-12-20T04:04:56.492Z,100714.66
2022-12-20T04:07:23.395Z,100711.88
2022-12-20T04:09:50.301Z,100707.69
2022-12-20T04:12:17.300Z,100710.03
2022-12-20T04:14:44.197Z,100713.44
2022-12-20T04:17:11.138Z,100704.91
2022-12-20T04:19:38.089Z,100699.09
2022-12-20T04:22:06.282Z,100697.44
2022-12-20T04:24:33.494Z,100701.16
2022-12-20T04:27:00.490Z,100692.38
2022-12-20T04:29:27.861Z,100693.91
2022-12-20T04:31:54.781Z,100694.81
2022-12-20T04:34:21.682Z,100692.56
2022-12-20T04:36:48.746Z,100690.81
2022-12-20T04:39:15.710Z,100685.84
2022-12-20T04:41:42.650Z,100687.50
2022-12-20T04:44:09.527Z,100680.97
2022-12-20T04:46:36.612Z,100689.09
2022-12-20T04:49:04.000Z,100687.25
2022-12-20T04:51:31.344Z,100689.56
2022-12-20T04:53:58.294Z,100689.16
2022-12-20T04:56:28.872Z,100688.06
2022-12-20T04:58:58.887Z,100691.41
2022-12-20T05:01:26.685Z,100705.47
2022-12-20T05:03:54.486Z,100703.06
2022-12-20T05:06:21.723Z,100700.34
2022-12-20T05:08:48.822Z,100698.03
2022-12-20T05:11:16.015Z,100687.84
2022-12-20T05:13:43.073Z,100685.69
2022-12-20T05:16:10.298Z,100674.75
2022-12-20T05:18:39.519Z,100673.69
2022-12-20T05:21:28.472Z,100679.72
2022-12-20T05:24:13.939Z,100677.16
2022-12-20T05:26:41.247Z,100681.38
2022-12-20T05:29:08.110Z,100677.16
2022-12-20T05:31:35.399Z,100689.09
2022-12-20T05:34:03.406Z,100683.81
2022-12-20T05:36:30.382Z,100676.66
2022-12-20T05:39:03.658Z,100672.03
2022-12-20T05:41:31.112Z,100680.63
2022-12-20T05:43:58.355Z,100680.31
2022-12-20T05:46:25.389Z,100669.16
2022-12-20T05:48:52.799Z,100674.84
2022-12-20T05:51:19.698Z,100665.75
2022-12-20T05:53:46.703Z,100658.63
2022-12-20T05:56:13.683Z,100659.72
2022-12-20T05:58:40.600Z,100666.81
2022-12-20T06:01:08.776Z,100660.09
2022-12-20T06:03:36.540Z,100667.06
2022-12-20T06:06:10.108Z,100662.38
2022-12-20T06:08:38.952Z,100674.03
2022-12-20T06:11:07.026Z,100661.38
2022-12-20T06:13:33.933Z,100665.41
2022-12-20T06:16:00.985Z,100662.75
2022-12-20T06:18:28.269Z,100662.75
2022-12-20T06:20:55.592Z,100659.53
2022-12-20T06:23:23.392Z,100659.28
2022-12-20T06:25:50.367Z,100653.16
2022-12-20T06:28:21.817Z,100655.13
2022-12-20T06:30:57.564Z,100659.09
2022-12-20T06:33:25.195Z,100662.75
2022-12-20T06:35:53.329Z,100650.97
2022-12-20T06:38:20.243Z,100652.47
2022-12-20T06:40:47.179Z,100652.47
2022-12-20T06:43:14.468Z,100647.00
2022-12-20T06:45:42.483Z,100640.41
2022-12-20T06:48:10.399Z,100637.25
2022-12-20T06:50:39.154Z,100634.25
2022-12-20T06:53:06.114Z,100639.31
2022-12-20T06:55:33.488Z,100636.00
2022-12-20T06:58:00.389Z,100642.88
2022-12-20T07:00:27.499Z,100641.97
2022-12-20T07:02:54.865Z,100646.84
2022-12-20T07:05:22.053Z,100649.41
2022-12-20T07:07:49.240Z,100638.78
2022-12-20T07:10:16.360Z,100631.22
2022-12-20T07:12:47.734Z,100630.16
2022-12-20T07:15:16.083Z,100629.94
2022-12-20T07:17:43.209Z,100621.16
2022-12-20T07:20:13.993Z,100633.00
2022-12-20T07:22:41.818Z,100638.88
2022-12-20T07:25:09.965Z,100644.72
2022-12-20T07:27:37.051Z,100637.28
2022-12-20T07:30:05.220Z,100630.00
2022-12-20T07:32:32.271Z,100636.88
2022-12-20T07:34:59.407Z,100638.81
2022-12-20T07:37:28.878Z,100628.34
2022-12-20T07:39:55.922Z,100628.44
2022-12-20T07:42:22.926Z,100637.34
2022-12-20T07:44:49.991Z,100623.78
2022-12-20T07:47:16.936Z,100623.31
2022-12-20T07:49:43.848Z,100617.91
2022-12-20T07:52:13.993Z,100608.25
2022-12-20T07:54:47.652Z,100612.78
2022-12-20T07:57:22.324Z,100604.59
2022-12-20T07:59:54.516Z,100601.13
2022-12-20T08:02:32.923Z,100604.84
2022-12-20T08:05:00.365Z,100599.06
2022-12-20T08:07:29.547Z,100587.56
2022-12-20T08:09:56.938Z,100598.06
2022-12-20T08:12:25.883Z,100593.72
2022-12-20T08:14:56.230Z,100587.44
2022-12-20T08:17:23.655Z,100591.72
2022-12-20T08:19:53.597Z,100591.94
2022-12-20T08:22:20.852Z,100588.28
2022-12-20T08:24:47.776Z,100594.75
2022-12-20T08:27:15.344Z,100597.59
2022-12-20T08:29:42.280Z,100598.13
2022-12-20T08:32:10.142Z,100596.38
2022-12-20T08:34:37.064Z,100594.09
2022-12-20T08:37:07.779Z,100585.97
2022-12-20T08:39:37.732Z,100580.19
2022-12-20T08:42:05.827Z,100570.41
2022-12-20T08:44:32.739Z,100569.50
2022-12-20T08:46:59.630Z,100560.03
2022-12-20T08:49:26.566Z,100556.41
2022-12-20T08:51:53.497Z,100556.56
2022-12-20T08:54:20.537Z,100558.19
2022-12-20T08:56:47.688Z,100555.66
2022-12-20T08:59:14.630Z,100569.72
2022-12-20T09:01:41.642Z,100570.25
2022-12-20T09:04:11.730Z,100564.19
2022-12-20T09:06:39.396Z,100558.31
2022-12-20T09:09:07.304Z,100556.16
2022-12-20T09:11:34.802Z,100555.75
2022-12-20T09:14:01.828Z,100548.69
2022-12-20T09:16:32.703Z,100557.47
2022-12-20T09:19:05.551Z,100557.44
2022-12-20T09:21:34.402Z,100560.88
2022-12-20T09:24:01.500Z,100554.31
2022-12-20T09:26:28.552Z,100544.22
2022-12-20T09:28:55.496Z,100551.97
2022-12-20T09:31:25.874Z,100549.69
2022-12-20T09:33:58.465Z,100549.38
2022-12-20T09:36:28.014Z,100561.63
2022-12-20T09:38:56.032Z,100554.16
2022-12-20T09:41:34.790Z,100555.38
2022-12-20T09:44:32.192Z,100549.84
2022-12-20T09:47:23.115Z,100543.22
2022-12-20T09:49:54.908Z,100541.88
2022-12-20T09:52:30.901Z,100543.28
2022-12-20T09:55:28.464Z,100534.94
2022-12-20T09:58:18.584Z,100536.97
2022-12-20T10:00:54.185Z,100527.28
2022-12-20T10:03:33.653Z,100519.34
2022-12-20T10:06:29.115Z,100512.31
2022-12-20T10:09:34.291Z,100523.16
2022-12-20T10:12:38.093Z,100529.06
2022-12-20T10:15:34.128Z,100528.84
2022-12-20T10:18:26.515Z,100536.81
2022-12-20T10:21:08.813Z,100540.81
2022-12-20T10:24:13.669Z,100536.38
2022-12-20T10:26:40.935Z,100536.78
2022-12-20T10:29:08.712Z,100527.19
2022-12-20T10:31:36.352Z,100524.06
2022-12-20T10:34:03.409Z,100522.06
2022-12-20T10:36:36.436Z,100516.63
2022-12-20T10:39:08.472Z,100516.09
2022-12-20T10:41:42.721Z,100512.63
2022-12-20T10:44:22.081Z,100509.72
2022-12-20T10:46:54.816Z,100493.41
2022-12-20T10:49:26.609Z,100498.38
2022-12-20T10:52:08.390Z,100481.47
2022-12-20T10:54:41.912Z,100480.56
2022-12-20T10:57:31.631Z,100485.22
2022-12-20T11:00:02.571Z,100482.16
2022-12-20T11:02:40.733Z,100476.34
2022-12-20T11:05:11.610Z,100481.66
2022-12-20T11:08:34.867Z,100469.41
2022-12-20T11:10:49.044Z,100450.78
2022-12-20T11:13:26.966Z,100442.97
2022-12-20T11:15:57.726Z,100433.69
2022-12-20T11:18:39.765Z,100441.31
2022-12-20T11:21:11.076Z,100437.75
2022-12-20T11:24:23.247Z,100440.91
2022-12-20T11:27:19.843Z,100446.66
2022-12-20T11:30:13.657Z,100438.53
2022-12-20T11:33:17.654Z,100451.66
2022-12-20T11:36:06.363Z,100451.06
2022-12-20T11:38:50.172Z,100454.59
2022-12-20T11:41:55.422Z,100445.28
2022-12-20T11:44:52.163Z,100442.03
2022-12-20T11:47:42.986Z,100436.44
2022-12-20T11:50:45.780Z,100432.97
2022-12-20T11:53:50.973Z,100418.31
2022-12-20T11:56:26.430Z,100421.00
2022-12-20T11:59:06.150Z,100415.72
2022-12-20T12:01:44.950Z,100411.63
2022-12-20T12:04:20.298Z,100415.59
2022-12-20T12:07:13.723Z,100430.72
2022-12-20T12:10:14.258Z,100416.53
2022-12-20T12:12:48.674Z,100408.75
2022-12-20T12:15:17.006Z,100407.88
2022-12-20T12:18:16.841Z,100399.88
2022-12-20T12:21:44.444Z,100404.22
2022-12-20T12:24:39.319Z,100393.22
2022-12-20T12:27:16.403Z,100385.06
2022-12-20T12:29:43.816Z,100378.16
2022-12-20T12:32:56.201Z,100348.88
2022-12-20T12:36:04.250Z,100341.00
2022-12-20T12:38:47.323Z,100333.00
2022-12-20T12:41:50.881Z,100338.88
2022-12-20T12:44:20.759Z,100345.19
2022-12-20T12:46:58.128Z,100358.00
2022-12-20T12:49:28.653Z,100351.06
2022-12-20T12:52:01.627Z,100343.13
2022-12-20T12:54:37.053Z,100341.00
2022-12-20T12:57:14.242Z,100328.31
2022-12-20T12:59:50.044Z,100330.78
2022-12-20T13:02:21.048Z,100312.81
2022-12-20T13:05:06.421Z,100309.50
2022-12-20T13:07:33.339Z,100313.53
2022-12-20T13:10:05.810Z,100309.50
2022-12-20T13:12:38.900Z,100312.34
2022-12-20T13:15:20.953Z,100306.47
2022-12-20T13:18:10.733Z,100318.22
2022-12-20T13:20:38.615Z,100320.78
2022-12-20T13:23:08.635Z,100321.00
2022-12-20T13:25:41.958Z,100313.84
2022-12-20T13:28:24.179Z,100315.41
2022-12-20T13:30:54.237Z,100308.22
2022-12-20T13:33:25.134Z,100298.84
2022-12-20T13:36:23.916Z,100292.25
2022-12-20T13:39:25.453Z,100285.56
2022-12-20T13:42:22.878Z,100291.53
2022-12-20T13:44:52.517Z,100296.97
2022-12-20T13:47:25.201Z,100300.22
2022-12-20T13:49:52.715Z,100301.66
2022-12-20T13:52:29.860Z,100300.47
2022-12-20T13:55:06.834Z,100295.88
2022-12-20T13:57:45.961Z,100304.34
2022-12-20T14:00:28.261Z,100297.56
2022-12-20T14:02:56.156Z,100304.09
2022-12-20T14:05:28.522Z,100293.31
2022-12-20T14:08:08.931Z,100282.28
2022-12-20T14:10:36.502Z,100280.50
2022-12-20T14:13:03.905Z,100298.69
2022-12-20T14:15:35.514Z,100296.81
2022-12-20T14:18:22.715Z,100289.50
2022-12-20T14:21:00.008Z,100287.06
2022-12-20T14:23:38.257Z,100285.09
2022-12-20T14:26:07.298Z,100280.63
2022-12-20T14:28:41.012Z,100277.56
2022-12-20T14:31:39.346Z,100278.28
2022-12-20T14:34:30.355Z,100272.63
2022-12-20T14:37:28.307Z,100276.97
2022-12-20T14:40:19.321Z,100270.78
2022-12-20T14:42:46.746Z,100272.16
2022-12-20T14:45:13.646Z,100257.63
2022-12-20T14:48:06.719Z,100253.63
2022-12-20T14:50:35.900Z,100251.00
2022-12-20T14:53:04.032Z,100260.75
2022-12-20T14:55:39.593Z,100260.41
2022-12-20T14:58:29.769Z,100260.03
2022-12-20T15:01:21.563Z,100274.59
2022-12-20T15:03:51.535Z,100275.06
2022-12-20T15:06:43.659Z,100283.00
2022-12-20T15:09:10.670Z,100278.09
2022-12-20T15:11:39.080Z,100283.16
2022-12-20T15:14:32.918Z,100275.88
2022-12-20T15:17:01.094Z,100272.97
2022-12-20T15:19:28.094Z,100278.00
2022-12-20T15:21:55.076Z,100274.47
2022-12-20T15:24:26.745Z,100264.63
2022-12-20T15:26:54.952Z,100250.31
2022-12-20T15:29:27.607Z,100237.41
2022-12-20T15:32:25.770Z,100239.16
2022-12-20T15:34:52.803Z,100240.44
2022-12-20T15:37:19.728Z,100242.56
2022-12-20T15:39:46.787Z,100249.34
2022-12-20T15:42:18.572Z,100242.44
2022-12-20T15:44:45.826Z,100243.97
2022-12-20T15:47:14.042Z,100248.31
2022-12-20T15:49:47.859Z,100254.06
2022-12-20T15:52:21.888Z,100255.69
2022-12-20T15:54:49.676Z,100256.50
2022-12-20T15:57:16.878Z,100248.31
2022-12-20T16:00:01.704Z,100247.41
2022-12-20T16:02:30.811Z,100247.09
2022-12-20T16:04:58.883Z,100254.78
2022-12-20T16:07:26.142Z,100250.63
2022-12-20T16:09:53.993Z,100248.66
2022-12-20T16:12:29.272Z,100261.38
2022-12-20T16:14:56.942Z,100257.19
2022-12-20T16:17:24.811Z,100254.16
2022-12-20T16:19:51.705Z,100258.63
2022-12-20T16:22:23.974Z,100261.84
2022-12-20T16:24:51.699Z,100264.50
2022-12-20T16:27:18.847Z,100265.56
2022-12-20T16:29:46.001Z,100256.56
2022-12-20T16:32:19.639Z,100251.16
2022-12-20T16:34:46.777Z,100250.72
2022-12-20T16:37:13.977Z,100251.59
2022-12-20T16:39:41.969Z,100239.72
2022-12-20T16:42:18.007Z,100238.09
2022-12-20T16:44:46.016Z,100233.75
2022-12-20T16:47:15.001Z,100221.19
2022-12-20T16:49:49.672Z,100233.16
2022-12-20T16:52:21.809Z,100234.09
2022-12-20T16:54:48.988Z,100234.28
2022-12-20T16:57:15.882Z,100230.13
2022-12-20T16:59:42.810Z,100233.88
2022-12-20T17:02:34.302Z,100229.88
2022-12-20T17:05:02.230Z,100229.63
2022-12-20T17:07:29.261Z,100231.28
2022-12-20T17:09:56.329Z,100228.06
2022-12-20T17:12:23.510Z,100230.63
2022-12-20T17:14:50.623Z,100222.09
2022-12-20T17:17:17.708Z,100214.41
2022-12-20T17:19:44.768Z,100222.25
2022-12-20T17:22:24.939Z,100224.84
2022-12-20T17:24:52.016Z,100216.28
2022-12-20T17:27:19.018Z,100212.78
2022-12-20T17:29:46.092Z,100214.84
2022-12-20T17:32:25.820Z,100234.81
2022-12-20T17:34:53.590Z,100233.88
2022-12-20T17:37:21.462Z,100238.81
2022-12-20T17:39:48.924Z,100226.72
2022-12-20T17:42:16.732Z,100220.28
2022-12-20T17:44:43.832Z,100220.13
2022-12-20T17:47:11.704Z,100228.50
2022-12-20T17:49:39.068Z,100220.63
2022-12-20T17:52:06.083Z,100233.19
2022-12-20T17:54:39.777Z,100235.66
2022-12-20T17:57:13.185Z,100225.66
2022-12-20T17:59:40.173Z,100220.75
2022-12-20T18:02:27.387Z,100211.97
2022-12-20T18:04:54.535Z,100197.13
2022-12-20T18:07:21.703Z,100196.94
2022-12-20T18:09:49.071Z,100186.59
2022-12-20T18:12:17.229Z,100193.97
2022-12-20T18:14:44.866Z,100201.50
2022-12-20T18:17:11.996Z,100200.53
2022-12-20T18:19:39.526Z,100206.41
2022-12-20T18:22:06.595Z,100194.94
2022-12-20T18:24:33.604Z,100189.28
2022-12-20T18:27:00.607Z,100201.03
2022-12-20T18:29:28.488Z,100206.06
2022-12-20T18:31:55.450Z,100199.47
2022-12-20T18:34:22.578Z,100185.44
2022-12-20T18:36:49.457Z,100186.34
2022-12-20T18:39:16.483Z,100184.34
2022-12-20T18:41:44.230Z,100177.78
2022-12-20T18:44:11.896Z,100171.06
2022-12-20T18:46:39.128Z,100184.78
2022-12-20T18:49:06.182Z,100190.75
2022-12-20T18:51:38.798Z,100201.31
2022-12-20T18:54:09.805Z,100191.22
2022-12-20T18:56:39.022Z,100194.41
2022-12-20T18:59:12.131Z,100198.66
2022-12-20T19:01:41.595Z,100197.75
2022-12-20T19:04:10.224Z,100201.00
2022-12-20T19:06:38.005Z,100197.03
2022-12-20T19:09:11.859Z,100208.66
2022-12-20T19:11:40.325Z,100209.88
2022-12-20T19:14:08.222Z,100203.59
2022-12-20T19:16:36.443Z,100206.19
2022-12-20T19:19:04.582Z,100207.28
2022-12-20T19:21:34.711Z,100200.72
2022-12-20T19:24:06.771Z,100219.97
2022-12-20T19:26:36.368Z,100213.88
2022-12-20T19:29:05.018Z,100196.28
2022-12-20T19:31:36.250Z,100210.59
2022-12-20T19:34:11.863Z,100214.56
2022-12-20T19:36:46.349Z,100210.91
2022-12-20T19:39:20.403Z,100216.28
2022-12-20T19:42:15.652Z,100208.06
2022-12-20T19:44:35.588Z,100214.41
2022-12-20T19:47:05.831Z,100209.22
2022-12-20T19:49:33.388Z,100209.34
2022-12-20T19:52:00.268Z,100207.13
2022-12-20T19:54:27.297Z,100205.00
2022-12-20T19:56:54.270Z,100207.00
2022-12-20T19:59:21.220Z,100209.13
2022-12-20T20:01:48.271Z,100224.72
2022-12-20T20:04:15.354Z,100225.19
2022-12-20T20:06:42.681Z,100234.47
2022-12-20T20:09:11.355Z,100230.59
2022-12-20T20:11:38.274Z,100232.47
2022-12-20T20:14:08.172Z,100226.00
2022-12-20T20:16:36.494Z,100231.06
2022-12-20T20:19:05.404Z,100228.03
2022-12-20T20:21:34.867Z,100230.59
2022-12-20T20:24:02.066Z,100233.88
2022-12-20T20:26:32.210Z,100227.47
2022-12-20T20:29:01.199Z,100219.31
2022-12-20T20:31:28.385Z,100225.31
2022-12-20T20:33:57.654Z,100217.81
2022-12-20T20:36:24.864Z,100220.41
2022-12-20T20:38:52.358Z,100228.28
2022-12-20T20:41:19.699Z,100225.91
2022-12-20T20:43:46.803Z,100219.47
2022-12-20T20:46:15.917Z,100222.50
2022-12-20T20:48:44.044Z,100218.63
2022-12-20T20:51:11.924Z,100225.09
2022-12-20T20:53:39.477Z,100232.34
2022-12-20T20:56:07.965Z,100222.13
2022-12-20T20:58:35.682Z,100216.97
2022-12-20T21:01:06.143Z,100223.09
2022-12-20T21:03:33.173Z,100223.44
2022-12-20T21:06:36.998Z,100220.13
2022-12-20T21:08:47.693Z,100222.00
2022-12-20T21:11:14.813Z,100219.81
2022-12-20T21:13:41.953Z,100220.84
2022-12-20T21:16:20.810Z,100222.38
2022-12-20T21:18:58.988Z,100203.78
2022-12-20T21:21:26.837Z,100204.13
2022-12-20T21:23:55.135Z,100198.59
2022-12-20T21:26:23.593Z,100195.88
2022-12-20T21:28:50.638Z,100191.06
2022-12-20T21:31:19.670Z,100193.72
2022-12-20T21:33:47.132Z,100187.31
2022-12-20T21:36:18.649Z,100191.78
2022-12-20T21:38:50.810Z,100191.56
2022-12-20T21:41:20.200Z,100182.81
2022-12-20T21:43:47.252Z,100182.81
2022-12-20T21:46:14.338Z,100190.09
2022-12-20T21:48:44.457Z,100197.25
2022-12-20T21:51:14.615Z,100178.66
2022-12-20T21:53:47.662Z,100174.88
2022-12-20T21:56:15.878Z,100173.97
2022-12-20T21:58:43.976Z,100177.47
2022-12-20T22:01:13.959Z,100173.47
2022-12-20T22:03:41.101Z,100184.75
2022-12-20T22:06:08.162Z,100189.06
2022-12-20T22:08:35.276Z,100191.66
2022-12-20T22:11:09.594Z,100175.00
2022-12-20T22:13:41.554Z,100179.16
2022-12-20T22:16:18.916Z,100178.97
2022-12-20T22:18:50.486Z,100173.09
2022-12-20T22:21:20.055Z,100178.06
2022-12-20T22:23:48.125Z,100188.28
2022-12-20T22:26:20.476Z,100187.50
2022-12-20T22:28:57.117Z,100184.63
2022-12-20T22:31:25.979Z,100190.13
2022-12-20T22:33:55.157Z,100181.34
2022-12-20T22:36:22.857Z,100182.56
2022-12-20T22:38:54.656Z,100177.59
2022-12-20T22:41:28.799Z,100181.72
2022-12-20T22:43:58.253Z,100192.88
2022-12-20T22:46:25.995Z,100191.94
2022-12-20T22:48:52.964Z,100190.28
2022-12-20T22:51:22.802Z,100188.28
2022-12-20T22:53:49.820Z,100192.25
2022-12-20T22:56:19.682Z,100187.31
2022-12-20T22:58:46.933Z,100179.56
2022-12-20T23:01:16.213Z,100181.72
2022-12-20T23:03:44.994Z,100180.78
2022-12-20T23:06:15.763Z,100188.28
2022-12-20T23:08:43.525Z,100193.47
2022-12-20T23:11:35.520Z,100190.69
2022-12-20T23:14:22.571Z,100197.47
2022-12-20T23:16:50.353Z,100198.41
2022-12-20T23:19:17.381Z,100194.19
2022-12-20T23:22:02.815Z,100197.94
2022-12-20T23:24:29.708Z,100187.16
2022-12-20T23:26:56.920Z,100195.56
2022-12-20T23:29:24.002Z,100181.44
2022-12-20T23:31:51.039Z,100181.22
2022-12-20T23:34:18.058Z,100180.53
2022-12-20T23:36:44.953Z,100179.38
2022-12-20T23:39:11.986Z,100177.94
2022-12-20T23:41:38.957Z,100169.78
2022-12-20T23:44:06.800Z,100171.22
2022-12-20T23:46:34.104Z,100174.94
2022-12-20T23:49:01.216Z,100174.06
2022-12-20T23:51:28.130Z,100168.56
2022-12-20T23:53:55.057Z,100163.94
2022-12-20T23:56:22.741Z,100171.09
2022-12-20T23:58:54.653Z,100155.00
